Chain of Ponds Twp, Maine
Current Conditions -  °F | °C
As of 12:29 PM on Thursday 23 Oct 2014 (Local Time) from KBML Reporting Station
Heavy Rain Heavy Rain  
Wind Chill: 40°   Ceiling: 2600
Heat Index: 46°   Visibility: 2mi
Dew Point: 43°   Wind: 13mph
Humidity: 89%   Direction: 10°N
Pressure: 29.87"   Gusts: 22mph
Location:  45.2635°N, 70.5567°W
Report Text: KBML 231629Z AUTO 01011G19KT 2SM +RA BR FEW010 SCT020 OVC026 08/06 A2987 RMK AO2 P0017 T00780061
Loading
Personal Weather Stations






























Interactive Weather Map
Tropical Storm Tracking
New forecast layout! Learn more

10-Day Weather Forecast

Advertisements
Track Severe Weather on mobile